x

9440910 - Toke Point, Wa (tokw1) Weather Station

11:54 - Sat 30th Jul 2016 All times are PDT. -7 hours from GMT.

  • Wind
    8mph, 13mph gusts
  • Sea Temp 56°f
  • Ar Temp 58°f
  • Sea Pressure 1017.1mb
  • 9440910 - Toke Point, Wa
  • 9440910 - Toke Point, Wa

More Historic Weather Station data

Upgrade to MSW Pro to gain access to the past 30 days of data for over 8000 Wavebouys and Weather Stations around the globe.

Join Pro

Comparision Forecast

View Surf forecast
   
Sáb 07/30 11:54 8 13 mph 1017.1mb 56f 58f
11:48 10 14 mph 1017.1mb - -
11:42 8 11 mph 1017.2mb - -
11:36 9 11 mph 1017.2mb - -
11:30 9 14 mph 1017.3mb 55f 58f
11:24 10 14 mph 1017.3mb 55f 58f
11:18 10 16 mph - - -
11:12 13 16 mph 1017.3mb 55f 58f
11:06 10 14 mph 1017.3mb 55f 58f
11:00 8 10 mph 1017.3mb 55f 58f
10:54 9 13 mph 1017.3mb 55f 58f
10:48 10 17 mph 1017.3mb 55f -
10:42 14 18 mph 1017.3mb 55f -
10:36 9 20 mph 1017.4mb 55f -
10:30 10 13 mph 1017.3mb 55f 58f
10:24 9 14 mph 1017.3mb 55f 58f
10:18 10 13 mph 1017.3mb 55f 58f
10:12 9 14 mph 1017.3mb 55f 58f
10:06 9 17 mph 1017.2mb 55f 58f
10:00 11 16 mph 1017.2mb 55f 58f
9:54 14 20 mph 1017.2mb 55f 58f
9:48 13 16 mph 1017.2mb 55f 58f
9:42 11 14 mph 1017.1mb 56f 58f
9:36 11 16 mph 1017.1mb 56f 58f
9:30 13 17 mph 1017.1mb 57f 58f
9:24 15 18 mph 1017.1mb 57f 58f
9:18 14 18 mph 1017mb 58f 58f
9:12 14 16 mph 1017mb 58f 58f
9:06 13 18 mph 1017.1mb 58f 58f
9:00 14 17 mph 1017mb 59f 58f
8:54 9 14 mph 1017mb 59f 58f
8:48 8 15 mph 1016.9mb 58f 57f
8:42 8 14 mph 1016.9mb 59f 57f
8:36 10 15 mph 1016.9mb 59f 58f
8:30 11 16 mph 1017mb 59f 58f
8:24 11 17 mph 1016.9mb 60f 58f
8:18  -  mph 1016.9mb 60f -
8:12  -  mph 1016.9mb 60f -
8:06  -  mph 1016.9mb 61f -
8:00  -  mph - 60f -
7:54  -  mph - 60f -
7:48 14 21 mph 1016.7mb 62f -
7:42 16 21 mph 1016.8mb 62f -
7:36 14 22 mph 1016.9mb 62f -
7:30 14 21 mph - - -
7:24 14 23 mph - - -
7:18 11 17 mph 1016.9mb 61f -
7:12 15 20 mph 1017mb 62f -
7:06 14 17 mph 1017mb 61f -
7:00 17 24 mph 1017mb 62f -
6:54 15 23 mph 1017mb 63f -
6:48 15 21 mph - - -
6:42 17 23 mph - - -
6:36 18 21 mph - - -
6:30  -  mph - 63f -
6:24  -  mph - 64f -
6:18 17 21 mph - 64f -
6:12 16 22 mph - 64f -
6:06 18 25 mph - 64f -
6:00 18 26 mph 1017.3mb 64f -
5:54 17 25 mph 1017.3mb 63f -
5:48 21 25 mph 1017.3mb 63f -
5:42 22 24 mph 1017.3mb 63f -
5:36 18 25 mph 1017.3mb 63f -
5:30 16 24 mph - - -
5:24 18 23 mph - - -
5:18 18 23 mph - 64f 60f
5:12 18 29 mph - 63f 60f
5:06 20 26 mph - 64f 60f
5:00  -  mph - 64f -
4:54  -  mph - 65f -
4:48  -  mph - 66f -
4:42  -  mph - 65f -
4:36  -  mph - 66f -
4:30 25 30 mph - - -
4:24 21 28 mph - - -
4:18 20 25 mph 1017.4mb 64f -
4:12 21 25 mph 1017.5mb 65f -
4:06 21 25 mph 1017.4mb 65f -
4:00 18 28 mph 1017.4mb 65f -
3:54 22 25 mph 1017.4mb 65f -
3:48 22 26 mph 1017.5mb 64f -
3:42 20 25 mph 1017.5mb 65f -
3:36 21 25 mph 1017.5mb 65f -
3:30 21 26 mph - 64f 60f
3:24 16 26 mph - 64f 61f
3:18 16 21 mph 1017.6mb 64f -
3:12 16 22 mph 1017.6mb 64f -
3:06 14 22 mph 1017.6mb 64f -
3:00  -  mph - 64f 61f
2:54  -  mph - 63f 61f
2:48 20 24 mph 1017.5mb 64f 61f
2:42 17 23 mph 1017.5mb 64f 60f
2:36 17 22 mph 1017.4mb 63f 60f
2:30 16 24 mph 1017.4mb 62f 60f
2:24 17 21 mph 1017.5mb 62f 60f
2:18 18 22 mph 1017.5mb 62f 60f
2:12 21 24 mph 1017.5mb 62f 60f
2:06 20 23 mph 1017.5mb 61f 60f
2:00 20 22 mph 1017.4mb 62f 60f
1:54 20 22 mph 1017.5mb 61f 60f
1:48 16 23 mph 1017.5mb 60f 60f
1:42 17 22 mph 1017.4mb 61f 60f
1:36 18 22 mph 1017.4mb 61f 60f
1:30 18 22 mph 1017.4mb 61f 60f
1:24 13 22 mph 1017.4mb 60f 60f
1:18 15 21 mph 1017.4mb 60f 60f
1:12 16 20 mph 1017.4mb 58f 60f
1:06 15 21 mph 1017.4mb 60f 60f
1:00 20 22 mph 1017.4mb 58f 59f
12:54 17 22 mph 1017.4mb 58f 60f
12:48 14 21 mph 1017.3mb 58f 60f
12:42 14 18 mph 1017.2mb 58f 60f
12:36 13 20 mph 1017.2mb 58f 60f
12:30 14 20 mph 1017.2mb 58f 60f
12:24 18 21 mph 1017.1mb 56f 60f
12:18 15 20 mph 1017.2mb 56f 60f
12:12 15 22 mph 1017.1mb 55f 60f
12:06 15 20 mph 1017.1mb 55f 60f
12:00 18 21 mph 1017.1mb 55f 59f
11:54 11 21 mph 1017.1mb 55f 60f
11:48 15 18 mph 1017.1mb 55f 59f
11:42 15 17 mph 1017.1mb 55f 59f
11:36 13 21 mph 1017.2mb 55f 60f
11:30 16 20 mph 1017.2mb 55f 59f
11:24 16 22 mph 1017.1mb 55f 59f
11:18 13 16 mph 1017mb 56f 59f
11:12 11 21 mph 1017mb 56f 59f
11:06 13 20 mph 1016.9mb 56f 59f
11:00 17 20 mph 1016.8mb 57f 59f
10:54 15 20 mph 1016.8mb 56f 59f
10:48 18 22 mph 1016.8mb 56f 59f
10:42 17 21 mph 1016.8mb 57f 59f
10:36 15 21 mph 1016.7mb 57f 59f
10:30 15 20 mph 1016.7mb 57f 59f
10:24 14 21 mph 1016.6mb 57f 59f
10:18 15 21 mph 1016.6mb 58f 59f
10:12 14 21 mph 1016.6mb 58f 59f
10:06 13 21 mph 1016.5mb 58f 59f
10:00 16 18 mph 1016.5mb 59f 59f
9:54 16 20 mph 1016.5mb 59f 59f
9:48 11 16 mph 1016.5mb 60f 59f
9:42 10 14 mph 1016.5mb 60f 58f
9:36 11 17 mph 1016.6mb 61f 58f
9:30 11 14 mph 1016.5mb 61f 59f
9:24 8 17 mph 1016.5mb 61f 59f
9:18 10 13 mph 1016.5mb 61f 58f
9:12 8 13 mph 1016.5mb 61f 58f
9:06 9 13 mph 1016.4mb 62f 59f
9:00 10 15 mph 1016.3mb 62f 58f
8:54 10 15 mph 1016.3mb 62f 59f
8:48 9 11 mph 1016.2mb 62f 59f
8:42 9 14 mph 1016.2mb 62f 59f
8:36 9 14 mph 1016.2mb 62f 58f
8:30 10 11 mph 1016.1mb 62f 58f
8:24 8 13 mph 1016mb 62f 58f
8:18 7 13 mph 1015.9mb 63f 58f
8:12 8 11 mph 1016mb 63f 58f
8:06 9 10 mph 1015.9mb 63f 58f
8:00 8 11 mph 1015.9mb 63f 58f
7:54 7 11 mph 1015.9mb 63f 57f
7:48 9 11 mph 1015.9mb 63f 57f
7:42 7 10 mph 1015.9mb 63f 57f
7:36 8 10 mph 1015.8mb 63f 57f
7:30 6 8 mph 1015.8mb 63f 57f
7:24 7 10 mph 1015.8mb 63f 57f
7:18 8 10 mph 1015.7mb 63f 57f
7:12 8 10 mph 1015.6mb 63f 57f
7:06 10 11 mph 1015.6mb 63f 56f
7:00 10 13 mph 1015.6mb 64f 56f
6:54 8 10 mph 1015.6mb 64f 56f
6:48 5 7 mph 1015.6mb 64f 55f
6:42 7 9 mph 1015.6mb 64f 55f
6:36 6 7 mph 1015.5mb 64f 55f
6:30 5 6 mph 1015.5mb 64f 55f
6:24 5 6 mph 1015.5mb 64f 55f
6:18 5 6 mph 1015.5mb 64f 55f
6:12 6 8 mph 1015.5mb 64f 55f
6:06 7 8 mph 1015.4mb 64f 55f
6:00 7 8 mph 1015.4mb 64f 55f
5:54 6 7 mph 1015.4mb 64f 55f
5:48 3 7 mph 1015.4mb 64f 55f
5:42 5 6 mph 1015.4mb 64f 55f
5:36 5 6 mph 1015.4mb 64f 55f
5:30 2 5 mph 1015.4mb 64f 55f
5:24 3 6 mph 1015.4mb 64f 55f
5:18 5 7 mph 1015.5mb 64f 55f
5:12 5 7 mph 1015.4mb 64f 56f
5:06 6 7 mph 1015.4mb 64f 56f
5:00 6 8 mph 1015.3mb 64f 56f
4:54 6 8 mph 1015.3mb 64f 56f
4:48 7 9 mph 1015.3mb 64f 56f
4:42 7 8 mph 1015.3mb 64f 55f
4:36 5 7 mph 1015.3mb 64f 55f
4:30 6 7 mph 1015.3mb 64f 56f
4:24 5 8 mph 1015.3mb 63f 56f
4:18 6 7 mph 1015.4mb 64f 56f
4:12 5 6 mph 1015.4mb 64f 55f
4:06 2 6 mph 1015.4mb 64f 55f
4:00 3 6 mph 1015.5mb 64f 55f
3:54 5 6 mph 1015.5mb 64f 55f
3:48 3 5 mph 1015.5mb 63f 55f
3:42 5 7 mph 1015.5mb 63f 55f
3:36 5 7 mph 1015.5mb 63f 55f
3:30 3 6 mph 1015.5mb 63f 55f
3:24 5 6 mph 1015.5mb 62f 55f
3:18 5 7 mph 1015.5mb 63f 55f
3:12 6 8 mph 1015.5mb 63f 55f
3:06 5 7 mph 1015.5mb 61f 55f
3:00 6 7 mph 1015.5mb 63f 55f
2:54 6 7 mph 1015.6mb 63f 55f
2:48 6 8 mph 1015.6mb 62f 55f
2:42 6 7 mph 1015.6mb 61f 55f
2:36 6 7 mph 1015.6mb 62f 55f
2:30 6 7 mph 1015.6mb 61f 55f
2:24 6 8 mph 1015.7mb 61f 56f
2:18 5 6 mph 1015.7mb 61f 56f
2:12 6 7 mph 1015.7mb 61f 56f
2:06 5 8 mph 1015.7mb 61f 56f
2:00 6 8 mph 1015.8mb 61f 56f
1:54 6 8 mph 1015.8mb 61f 56f
1:48 6 8 mph 1015.8mb 61f 56f
1:42 5 8 mph 1015.9mb 60f 56f
1:36 6 7 mph 1015.9mb 62f 56f
1:30 6 8 mph 1015.9mb 62f 56f
1:24 6 7 mph 1015.9mb 61f 56f
1:18 6 9 mph 1015.9mb 60f 56f
1:12 6 10 mph 1015.9mb 61f 57f
1:06 5 8 mph 1016mb 61f 57f
1:00 3 6 mph 1016mb 61f 57f
12:54 6 9 mph 1015.9mb 61f 57f
12:48 5 7 mph 1015.9mb 60f 57f
12:42 5 8 mph 1015.9mb 60f 57f
12:36 7 9 mph 1015.9mb 60f 57f
12:30 6 8 mph 1015.9mb 60f 57f
12:24 8 11 mph 1016mb 59f 57f
12:18 7 10 mph 1015.9mb 59f 57f
12:12 7 8 mph 1015.9mb 58f 57f
12:06 6 8 mph 1015.9mb 59f 57f
12:00 7 9 mph 1015.9mb 58f 57f
Sex 07/29 11:54 6 9 mph 1015.9mb 58f 57f
11:48 3 7 mph 1015.9mb 58f 57f
11:42 8 10 mph 1015.9mb 58f 57f
11:36 5 9 mph 1016mb 58f 58f
11:30 6 10 mph 1016mb 57f 58f
11:24 7 10 mph 1016.1mb 56f 58f
11:18 8 11 mph 1016.2mb 56f 58f
11:12 10 13 mph 1016.1mb 56f 58f
11:06 7 10 mph 1016.1mb 56f 58f
11:00 9 13 mph 1016.1mb 56f 58f
10:54 10 14 mph 1016.1mb 56f 58f
10:48 11 15 mph 1016.1mb 56f 58f
10:42 11 14 mph 1016.1mb 56f 58f
10:36 11 15 mph 1016.1mb 55f 58f
10:30 11 14 mph 1016.1mb 55f 58f
10:24 13 18 mph 1016mb 55f 58f
10:18 13 16 mph 1016.1mb 55f 58f
10:12 9 15 mph 1016.1mb 55f 58f
10:06 8 14 mph 1016.1mb 55f 58f
10:00 9 16 mph 1016.1mb 55f 58f
9:54 9 15 mph 1016.1mb 55f 58f
9:48 13 15 mph 1016.1mb 55f 58f
9:42 11 18 mph 1016.1mb 55f 58f
9:36 9 15 mph 1016.2mb 56f 58f
9:30 10 13 mph 1016.1mb 56f 58f
9:24 13 17 mph 1016mb 56f 58f
9:18 9 16 mph 1016.1mb 56f 58f
9:12 13 17 mph 1016mb 56f 59f
9:06 10 14 mph 1016mb 56f 59f
9:00 11 15 mph 1016mb 56f 59f
8:54 13 20 mph 1016mb 56f 59f
8:48 17 21 mph 1016mb 56f 59f
8:42 13 18 mph 1016mb 57f 59f
8:36 14 18 mph 1016mb 57f 59f
8:30  -  mph 1016mb - -
8:24  -  mph 1016mb - -
8:18 13 18 mph - 59f -
8:12 11 16 mph - 59f -
8:06 15 22 mph - 60f -
8:00  -  mph 1016.1mb 60f -
7:54  -  mph 1016.1mb 60f -
7:48 14 20 mph 1016mb 60f -
7:42 11 15 mph 1016mb 60f -
7:36 13 20 mph 1016mb 60f -
7:30 14 22 mph 1016mb 60f -
7:24 15 18 mph 1016.1mb 60f -
7:18 14 20 mph - - -
7:12 13 21 mph 1016mb 61f -
7:06 15 23 mph 1016.1mb 61f -
7:00 14 16 mph 1016.1mb 62f 61f
6:54 15 21 mph 1016.1mb 62f 61f
6:48 15 20 mph 1016.2mb 62f -
6:42 15 21 mph 1016.2mb 62f -
6:36 14 22 mph 1016.2mb 64f -
6:30 14 21 mph 1016.1mb 64f -
6:24 13 18 mph 1016.1mb 64f -
6:18 17 22 mph - 64f -
6:12 15 18 mph - 64f -
6:06 16 22 mph - 64f -
6:00  -  mph 1016.1mb 65f -
5:54  -  mph 1016.1mb 64f -
5:48 16 18 mph 1016.1mb 65f -
5:42 17 22 mph 1016.1mb 66f -
5:36 16 22 mph 1016.2mb 66f -
5:30 16 22 mph 1016.1mb 64f -
5:24 17 21 mph 1016.1mb 66f -
5:18 16 20 mph - 65f 64f
5:12 13 17 mph - 66f 64f
5:06 16 18 mph - 66f 64f
5:00  -  mph - 65f -
4:54  -  mph - 64f -
4:48  -  mph - 64f -
4:42  -  mph - 65f -
4:36  -  mph - 67f -
4:30  -  mph - 66f -
4:24  -  mph - 67f -
4:18  -  mph - 66f -
4:12  -  mph - 67f -
4:06  -  mph - 67f -
4:00  -  mph - 67f -
3:54  -  mph - 67f -
3:48  -  mph - 67f -
3:42  -  mph - 67f -
3:36  -  mph - 67f -
3:30  -  mph - 67f -
3:24  -  mph - 67f -
3:18  -  mph 1016.5mb 67f -
3:12  -  mph 1016.5mb 67f -
3:06  -  mph 1016.5mb 68f -
3:00  -  mph 1016.5mb 68f 65f
2:54  -  mph 1016.5mb 68f 64f
2:48 14 16 mph 1016.5mb 68f 65f
2:42 13 16 mph 1016.5mb 67f 65f
2:36 14 16 mph 1016.5mb 67f 65f
2:30 14 17 mph 1016.5mb 67f 65f
2:24 13 15 mph 1016.5mb 66f 66f
2:18 11 13 mph 1016.6mb 66f 66f
2:12 10 13 mph 1016.6mb 65f 66f
2:06 9 13 mph 1016.6mb 65f 66f
2:00 9 11 mph 1016.7mb 65f 65f
1:54 11 14 mph 1016.6mb 66f 65f
1:48 10 14 mph 1016.7mb 66f 65f
1:42 11 14 mph 1016.8mb 66f 65f
1:36 10 14 mph 1016.8mb 65f 65f
1:30 11 14 mph 1016.8mb 64f 65f
1:24 9 11 mph 1016.7mb 62f 65f
1:18 8 13 mph 1016.7mb 63f 66f
1:12 10 14 mph 1016.7mb 64f 65f
1:06 9 14 mph 1016.7mb 64f 65f
1:00 10 15 mph 1016.7mb 64f 64f
12:54 10 15 mph 1016.8mb 63f 64f
12:48 10 15 mph 1016.8mb 63f 64f
12:42 11 15 mph 1016.8mb 63f 64f
12:36 9 13 mph 1016.8mb 62f 64f
12:30 9 13 mph 1016.9mb 62f 64f
12:24 9 13 mph 1017mb 62f 63f
12:18 9 13 mph 1017.1mb 63f 61f
12:12 8 14 mph 1017.2mb 63f 61f
12:06 10 13 mph 1017.3mb 62f 58f
12:00 11 14 mph 1017.3mb 61f 58f
11:54 9 14 mph 1017.4mb 61f 59f
11:48 9 11 mph 1017.4mb 61f 59f
11:42 10 11 mph 1017.4mb 61f 59f
11:36 8 10 mph 1017.4mb 61f 59f
11:30 7 9 mph 1017.4mb 60f 60f
11:24 8 10 mph 1017.4mb 60f 59f
11:18 8 9 mph 1017.4mb 59f 59f
11:12 5 8 mph 1017.5mb 59f 59f
11:06 5 9 mph 1017.5mb 58f 59f
11:00 5 6 mph 1017.5mb 58f 59f
10:54 5 7 mph 1017.5mb 57f 59f
10:48 2 5 mph 1017.6mb 57f 59f
10:42 3 6 mph 1017.6mb 57f 59f
10:36 3 6 mph 1017.6mb 57f 59f
10:30 2 6 mph 1017.6mb 56f 58f
10:24 3 6 mph 1017.6mb 56f 58f
10:18 5 6 mph 1017.7mb 57f 58f
10:12 5 6 mph 1017.7mb 57f 58f
10:06 5
mph
1017.7mb 57f 58f
10:00 3 6 mph 1017.7mb 58f 57f
9:54 3 5 mph 1017.7mb 58f 58f
9:48 2 3 mph 1017.7mb 58f 58f
9:42 3 5 mph 1017.7mb 58f 58f
9:36 3 5 mph 1017.9mb 59f 58f
9:30 3 5 mph 1017.9mb 59f 57f
9:24 5
mph
1017.8mb 60f 57f
9:18 5 7 mph 1017.9mb 60f 57f
9:12 6
mph
1017.9mb 60f 57f
9:06 5
mph
1017.8mb 61f 57f
9:00 5 6 mph 1017.8mb 61f 57f
8:54 3 6 mph 1017.7mb 61f 57f
8:48 3 6 mph 1017.7mb 62f 57f
8:42 5 6 mph 1017.7mb 62f 57f
8:36 5 7 mph 1017.7mb 62f 57f
8:30 5 6 mph 1017.7mb 61f 57f
8:24 6 7 mph 1017.7mb 62f 57f
8:18 5 6 mph 1017.7mb 63f 57f
8:12 5
mph
1017.7mb 62f 57f
8:06 1 2 mph 1017.7mb 63f 57f
8:00 1 2 mph 1017.7mb 62f 57f
7:54 3 5 mph 1017.7mb 63f 57f
7:48 3 5 mph 1017.6mb 64f 57f
7:42 3
mph
1017.5mb 64f 57f
7:36 2
mph
1017.5mb 64f 57f
7:30 1 5 mph 1017.5mb 65f 57f
7:24 3 5 mph 1017.5mb 65f 57f
7:18 3
mph
1017.5mb 65f 57f
7:12 1 3 mph 1017.5mb 64f 57f
7:06 2 3 mph 1017.5mb 65f 57f
7:00  -  1 mph 1017.5mb 65f 57f
6:54 2 5 mph 1017.5mb 65f 57f
6:48 5 6 mph 1017.4mb 65f 57f
6:42 2 3 mph 1017.4mb 65f 57f
6:36  -  2 mph 1017.4mb 65f 57f
6:30  -  2 mph 1017.4mb 65f 57f
6:24 2 5 mph 1017.3mb 65f 57f
6:18 3 5 mph 1017.3mb 65f 57f
6:12 2 5 mph 1017.3mb 65f 57f
6:06 5 8 mph 1017.4mb 65f 57f
6:00 6
mph
1017.4mb 65f 57f
5:54 5 7 mph 1017.4mb 65f 57f
5:48 2 7 mph 1017.4mb 65f 57f
5:42 5 7 mph 1017.4mb 66f 57f
5:36 5 6 mph 1017.5mb 66f 57f
5:30 2 6 mph 1017.5mb 66f 57f
5:24 5 6 mph 1017.5mb 66f 57f
5:18 3 6 mph 1017.5mb 66f 57f
5:12 3 5 mph 1017.5mb 66f 57f
5:06 3 6 mph 1017.5mb 66f 57f
5:00 5 7 mph 1017.5mb 66f 57f
4:54 6 7 mph 1017.5mb 66f 57f
4:48 6 7 mph 1017.4mb 66f 57f
4:42 6 8 mph 1017.5mb 66f 57f
4:36 6 7 mph 1017.4mb 66f 57f
4:30 6 7 mph 1017.5mb 66f 57f
4:24 6 7 mph 1017.5mb 67f 58f
4:18 6 8 mph 1017.6mb 67f 58f
4:12 7 8 mph 1017.6mb 67f 58f
4:06 7
mph
1017.6mb 67f 58f
4:00 7
mph
1017.6mb 67f 58f
3:54 5 7 mph 1017.7mb 67f 58f
3:48 6 7 mph 1017.7mb 67f 58f
3:42 7 8 mph 1017.7mb 66f 58f
3:36 6 8 mph 1017.8mb 66f 58f
3:30 7 9 mph 1017.7mb 66f 58f
3:24 7 8 mph 1017.8mb 66f 58f
3:18 6 8 mph 1017.7mb 66f 58f
3:12 5 6 mph 1017.6mb 66f 58f
3:06 6 11 mph 1017.7mb 66f 58f
3:00 6 8 mph 1017.8mb 65f 58f
2:54 6 8 mph 1017.8mb 65f 58f
2:48 8 10 mph 1017.8mb 65f 58f
2:42 5 7 mph 1017.7mb 65f 58f
2:36 6 7 mph 1017.7mb 65f 58f
2:30 6 7 mph 1017.7mb 64f 58f
2:24 5 7 mph 1017.8mb 64f 58f
2:18 6 9 mph 1017.9mb 65f 58f
2:12 6 9 mph 1017.9mb 65f 58f
2:06 5 8 mph 1017.9mb 65f 58f
2:00 7 8 mph 1017.9mb 64f 58f
1:54 5 9 mph 1017.9mb 65f 58f
1:48 9 10 mph 1018mb 64f 58f
1:42 5
mph
1018mb 64f 58f
1:36 5 6 mph 1018mb 64f 58f
1:30 1 6 mph 1018mb 64f 58f
1:24 3 6 mph 1018.1mb 64f 59f
1:18 3 5 mph 1018.1mb 64f 59f
1:12 3 6 mph 1018.1mb 63f 59f
1:06 3 6 mph 1018.1mb 63f 59f
1:00 5 6 mph 1018.1mb 63f 58f
12:54 5 8 mph 1018.1mb 63f 59f
12:48 6 8 mph 1018.2mb 62f 59f
12:42 6 7 mph 1018.2mb 62f 59f
12:36 5 8 mph 1018.1mb 62f 59f
12:30 8 9 mph 1018.2mb 63f 59f
12:24 6 8 mph 1018.2mb 63f 59f
12:18 5 7 mph 1018.2mb 62f 59f
12:12 6 8 mph 1018.2mb 62f 59f
12:06 8 11 mph 1018.2mb 62f 59f
12:00 6 8 mph 1018.3mb 62f 59f
Qui 07/28 11:54 5 9 mph 1018.3mb 62f 59f
11:48 8 10 mph 1018.3mb 63f -
11:42 6 9 mph 1018.4mb 62f -
11:36 6 8 mph 1018.4mb 60f -
11:30 3 7 mph 1018.4mb 60f 59f
11:24 2 5 mph 1018.5mb 61f 59f
11:18 3 5 mph 1018.6mb 62f 59f
11:12 2 5 mph 1018.6mb 62f 59f
11:06 3 8 mph 1018.6mb 60f 59f
11:00 2 5 mph 1018.6mb 59f 59f
10:54 3 6 mph 1018.6mb 60f 59f
10:48 6 7 mph 1018.6mb 60f -
10:42 6 7 mph 1018.6mb 59f -
10:36 3 6 mph 1018.6mb 58f -
10:30 5 6 mph 1018.6mb 58f 59f
10:24 3 5 mph 1018.6mb 59f 59f
10:18 5 7 mph 1018.6mb 58f 59f
10:12 5 7 mph 1018.6mb 59f 59f
10:06 2 8 mph 1018.6mb 58f 59f
10:00 6 9 mph 1018.6mb 58f 59f
9:54 3 6 mph 1018.6mb 57f 59f
9:48 5 6 mph 1018.5mb 57f 59f
9:42 5 8 mph 1018.5mb 57f 58f
9:36 8 10 mph 1018.5mb 57f 58f
9:30 6 7 mph 1018.5mb 57f 58f
9:24 6
mph
1018.4mb 56f 58f
9:18 5 6 mph 1018.4mb 56f 58f
9:12 3 6 mph 1018.3mb 56f 59f
9:06 3 6 mph 1018.3mb 56f 60f
9:00 3 5 mph 1018.3mb 56f 60f
8:54 3 5 mph 1018.2mb 56f 60f
8:48 1 2 mph 1018.2mb 56f 60f
8:42  -  3 mph 1018.1mb 56f 60f
8:36 2 5 mph 1018.1mb 56f 60f
8:30 5 6 mph 1018.1mb 56f 60f
8:24 5 6 mph 1018.1mb 56f 60f
8:18  -  mph 1018.1mb 57f -
8:12  -  mph 1018.1mb 57f -
8:06  -  mph 1018mb 57f -
8:00 6 8 mph - 57f -
7:54 8 11 mph - 58f -
7:48 8 13 mph 1018mb 58f -
7:42 9 13 mph 1018mb 59f -
7:36 10 14 mph 1018mb 59f -
7:30 10 14 mph - - -
7:24 11 14 mph - - -
7:18  -  mph - 59f 63f
7:12  -  mph - 59f 64f
7:06  -  mph - 60f 65f
7:00  -  mph 1018mb - -
6:54  -  mph 1018mb - -
6:48 11 13 mph 1018mb 60f -
6:42 10 11 mph 1018.1mb 60f -
6:36 8 9 mph 1018.1mb 60f -
6:30 7 9 mph 1018.2mb - -
6:24 7 9 mph 1018.2mb - -
6:18 7 10 mph - 60f -
6:12 7 9 mph - 60f -
6:06 8 9 mph - 61f -
6:00  -  mph - 61f 69f
5:54  -  mph - 61f 69f
5:48 8 11 mph 1018.4mb 61f -
5:42 10 13 mph 1018.4mb 63f -
5:36 11 13 mph 1018.5mb 62f -
5:30 10 14 mph 1018.5mb 62f -
5:24 13 14 mph 1018.6mb 64f -
5:18 13 14 mph 1018.7mb 64f -
5:12 11 14 mph 1018.8mb 64f -
5:06 10 11 mph 1018.7mb 63f -
5:00  -  mph - 64f 69f
4:54  -  mph - 65f 69f
4:48 8 9 mph 1018.8mb - -
4:42 7 10 mph 1018.8mb - -
4:36 8 14 mph 1018.8mb - -
4:30 11 16 mph - - -
4:24 13 16 mph - - -
4:18 14 16 mph - 67f -
4:12 14 18 mph - 67f -
4:06 16 18 mph - 67f -
4:00  -  mph - 65f -
3:54  -  mph - 65f -
3:48  -  mph - 65f -
3:42  -  mph - 65f -
3:36  -  mph - 65f -
3:30 11 14 mph 1018.8mb 66f -
3:24 11 15 mph 1018.9mb 65f -
3:18 11 14 mph - - -
3:12 10 13 mph 1019mb 67f 72f
3:06 10 14 mph 1019mb 66f 72f
3:00 11 13 mph 1019mb 67f -
2:54 9 11 mph 1019mb 67f -
2:48 10 11 mph - 67f 71f
2:42 9 13 mph - 67f 71f
2:36 10 14 mph - 67f 71f
2:30 9 10 mph 1019.1mb 67f 71f
2:24 9 11 mph 1019.2mb 67f 72f
2:18 8 10 mph 1019.4mb 68f 71f
2:12 9 11 mph 1019.4mb 67f 72f
2:06 10 13 mph 1019.5mb 67f 71f
2:00 8 10 mph 1019.6mb 67f 71f
1:54 8 11 mph 1019.6mb 67f 71f
1:48 9 13 mph 1019.6mb 66f 71f
1:42 8 11 mph 1019.7mb 67f 71f
1:36 11 15 mph 1019.8mb 67f 70f
1:30 11 13 mph 1019.8mb 67f 70f
1:24 9 13 mph 1019.9mb 67f 70f
1:18 10 13 mph 1019.9mb 66f 70f
1:12 6 9 mph 1019.9mb 66f 70f
1:06 7 14 mph 1020mb 66f 69f
1:00 8 11 mph 1020.1mb 66f 68f
12:54 7 11 mph 1020.2mb 66f 68f
12:48 9 10 mph 1020.3mb 65f 67f
12:42 9 13 mph 1020.3mb 65f 67f
12:36 8 10 mph 1020.4mb 65f 66f
12:30 7 9 mph 1020.4mb 65f 66f
12:24 9 13 mph 1020.5mb 65f 65f
12:18 6 9 mph 1020.6mb 64f 65f
12:12 7 9 mph 1020.6mb 64f 65f
12:06 8 9 mph 1020.7mb 64f 64f
12:00 8 10 mph 1020.8mb 64f 63f
11:54 6 8 mph 1020.9mb 64f 63f
11:48 5 9 mph 1020.9mb 64f 62f
11:42 7 9 mph 1021mb 64f 61f
11:36 6 8 mph 1021mb 64f 61f
11:30 6 7 mph 1020.9mb 64f 61f
11:24 6 7 mph 1021mb 63f 61f
11:18 5 6 mph 1021.1mb 63f 60f
11:12 5 6 mph 1021.1mb 63f 60f
11:06 5
mph
1021.1mb 63f 60f
11:00 2
mph
1021.1mb 63f 61f
10:54  -  1 mph 1021.1mb 63f 62f
10:48 1 2 mph 1021.2mb 62f 61f
10:42  -  2 mph 1021.2mb 62f 61f
10:36 2 3 mph 1021.4mb 61f 60f
10:30 2 3 mph 1021.3mb 60f 60f
10:24 2 3 mph 1021.2mb 61f 60f
10:18 2 3 mph 1021.3mb 61f 59f
10:12 3
mph
1021.3mb 61f 59f
10:06 2 5 mph 1021.4mb 60f 58f
10:00 2 5 mph 1021.3mb 60f 59f
9:54 1 3 mph 1021.4mb 59f 59f
9:48 1 3 mph 1021.4mb 60f 58f
9:42 3 5 mph 1021.4mb 59f 58f
9:36 1 2 mph 1021.3mb 58f 58f
9:30  -  3 mph 1021.3mb 58f 58f
9:24 2 5 mph 1021.3mb 57f 57f
9:18 2 6 mph 1021.3mb 57f 57f
9:12 3 6 mph 1021.4mb 57f 57f
9:06 5 6 mph 1021.4mb 58f 57f
9:00 5 6 mph 1021.4mb 57f 57f
8:54 3 6 mph 1021.4mb 57f 57f
8:48 3 5 mph 1021.5mb 58f 57f
8:42 5 6 mph 1021.5mb 58f 57f
8:36 5
mph
1021.4mb 58f 57f
8:30 3 5 mph 1021.4mb 59f 57f
8:24 3 6 mph 1021.4mb 60f 57f
8:18 3 5 mph 1021.4mb 60f 57f
8:12 3 5 mph 1021.4mb 60f 57f
8:06 5 6 mph 1021.4mb 60f 57f
8:00 1 6 mph 1021.5mb 60f 57f
7:54 5 6 mph 1021.5mb 61f 57f
7:48 3 6 mph 1021.4mb 61f 57f
7:42 5 6 mph 1021.4mb 61f 57f
7:36 6 7 mph 1021.4mb 61f 57f
7:30 5 8 mph 1021.3mb 62f 57f
7:24 7 9 mph 1021.3mb 62f 57f
7:18 7 8 mph 1021.3mb 61f 57f
7:12 6 8 mph 1021.3mb 62f 57f
7:06 7 8 mph 1021.4mb 62f 57f
7:00 6 9 mph 1021.4mb 62f 57f
6:54 6 9 mph 1021.4mb 62f 57f
6:48 8 10 mph 1021.3mb 62f 57f
6:42 9 11 mph 1021.3mb 63f 57f
6:36 7 9 mph 1021.3mb 64f 57f
6:30 5 7 mph 1021.3mb 65f 57f
6:24 5 9 mph 1021.2mb 64f 57f
6:18 7 9 mph 1021.2mb 64f 57f
6:12 8 10 mph 1021.2mb 64f 57f
6:06 9 13 mph 1021.2mb 63f 57f
6:00 7 10 mph 1021.2mb 64f 57f
5:54 7 10 mph 1021.1mb 64f 57f
5:48 9 13 mph 1021.1mb 64f 57f
5:42 8 10 mph 1021.1mb 64f 57f
5:36 6 11 mph 1021.1mb 65f 57f
5:30 8 11 mph 1021mb 64f 57f
5:24 8 10 mph 1021mb 64f 57f
5:18 7 11 mph 1021mb 64f 57f
5:12 6 8 mph 1021mb 65f 57f
5:06 5 6 mph 1021mb 65f 57f
5:00 3 6 mph 1021mb 65f 57f
4:54 5 8 mph 1021mb 65f 57f
4:48 7 8 mph 1021mb 65f 57f
4:42 3 5 mph 1021mb 65f 57f
4:36 2 5 mph 1021mb 65f 57f
4:30 2 3 mph 1021mb 65f 56f
4:24 2 5 mph 1021.1mb 65f 56f
4:18 5 6 mph 1021.1mb 65f 56f
4:12 5 7 mph 1021.1mb 65f 56f
4:06 7 8 mph 1021.1mb 65f 56f
4:00 6 8 mph 1021.1mb 65f 56f
3:54 9 10 mph 1021mb 66f 56f
3:48 8 11 mph 1021mb 66f 56f
3:42 9 13 mph 1021mb 66f 56f
3:36 10 13 mph 1021mb 66f 56f
3:30 9 10 mph 1021mb 66f 56f
3:24 6 9 mph 1020.9mb 66f 56f
3:18 8 10 mph 1020.9mb 66f 56f
3:12 7 10 mph 1021mb 66f 56f
3:06 8 10 mph 1020.9mb 66f 56f
3:00 10 13 mph 1020.9mb 66f 56f
2:54 9
mph
1020.9mb 66f 56f
2:48 9 10 mph 1020.8mb 66f 56f
2:42 9 13 mph 1020.7mb 66f 56f
2:36 9 13 mph 1020.8mb 66f 56f
2:30 7 9 mph 1020.7mb 66f 56f
2:24 7 9 mph 1020.8mb 66f 56f
2:18 7 13 mph 1020.7mb 66f 56f
2:12 8 9 mph 1020.7mb 65f 56f
2:06 6 7 mph 1020.7mb 65f 56f
2:00 6 8 mph 1020.8mb 65f 56f
1:54 9 10 mph 1020.7mb 65f 56f
1:48 8 9 mph 1020.7mb 64f 56f
1:42 7 9 mph 1020.8mb 64f 56f
1:36 7 10 mph 1020.8mb 64f 57f
1:30 7 9 mph 1020.8mb 64f 57f
1:24 8 9 mph 1020.8mb 64f 57f
1:18 8 9 mph 1020.8mb 65f 57f
1:12 6 9 mph 1020.9mb 65f 57f
1:06 7 9 mph 1020.9mb 64f 57f
1:00 6 8 mph 1021mb 64f 57f
12:54 8 9 mph 1021mb 62f 58f
12:48 7 8 mph 1021mb 63f 58f
12:42 7 9 mph 1021.1mb 63f 58f
12:36 8 10 mph 1021.1mb 64f 58f
12:30 8 10 mph 1021.2mb 64f 58f
12:24 8 14 mph 1021.2mb 64f 58f
12:18 10 13 mph 1021.2mb 63f 58f
12:12 11 13 mph 1021.1mb 63f 58f
12:06 5 8 mph 1021.2mb 63f 58f
12:00 6 9 mph 1021.3mb 63f 58f
Qua 07/27 11:54 7 9 mph 1021.3mb 63f 58f
11:48 8 10 mph 1021.3mb 63f -
11:42 8 11 mph 1021.3mb 63f -
11:36 7 10 mph 1021.4mb 63f -
11:30 7 10 mph 1021.4mb 63f 58f
11:24 7 10 mph 1021.5mb 62f 58f
11:18 7 10 mph 1021.5mb 63f 58f
11:12 7 10 mph 1021.5mb 63f 58f
11:06 7 8 mph 1021.5mb 62f 58f
11:00 8 10 mph 1021.5mb 62f 58f
10:54 5 8 mph 1021.5mb 62f 58f
10:48 6 9 mph 1021.5mb 63f -
10:42 3 9 mph 1021.5mb 62f -
10:36 5 9 mph 1021.5mb 62f -
10:30 9 11 mph 1021.5mb 63f 58f
10:24 7 9 mph 1021.4mb 62f 58f
10:18 8 10 mph 1021.4mb 62f 58f
10:12 7 8 mph 1021.5mb 62f 58f
10:06 6 7 mph 1021.3mb 62f 58f
10:00 5 7 mph 1021.3mb 62f 58f
9:54 6 8 mph 1021.3mb 62f 58f
9:48 6 8 mph 1021.3mb 62f 58f
9:42 5 8 mph 1021.3mb 61f 58f
9:36 5 8 mph 1021.2mb 60f 58f
9:30 6 8 mph 1021.1mb 60f 58f
9:24 6 8 mph 1021.1mb 59f 57f
9:18 7 9 mph 1021.1mb 59f 57f
9:12 6 8 mph 1021.1mb 59f 57f
9:06 7 9 mph 1021mb 58f 57f
9:00 7 11 mph 1021mb 57f 58f
8:54 6 10 mph 1021mb 58f 57f
8:48 6 8 mph 1021mb 58f 57f
8:42 2 6 mph 1021mb 57f 57f
8:36 6 8 mph 1021mb 56f 57f
8:30 6 8 mph 1021mb 56f 57f
8:24 3 6 mph 1021mb 56f 57f
8:18 6 8 mph - 55f -
8:12 6 8 mph - 55f -
8:06 7 10 mph - 55f -
8:00 7 9 mph 1021.1mb 55f -
7:54 8 10 mph 1021mb 55f -
7:48 9 11 mph - - -
7:42 10 11 mph - - -
7:36 9 10 mph - - -
7:30 8 10 mph - - -
7:24 7 11 mph - - -
7:18 10 13 mph - 57f -
7:12 10 13 mph - 57f -
7:06 7 9 mph - 57f -
7:00  -  mph - 57f -
6:54  -  mph - 58f -
6:48 7 9 mph - - -
6:42 7 9 mph - - -
6:36 6 9 mph - - -
6:30  -  mph 1020.9mb - -
6:24  -  mph 1020.9mb - -
6:18 8 11 mph - - -
6:12 10 13 mph - - -
6:06 9 13 mph - - -
6:00  -  mph - 60f -
5:54  -  mph - 60f -
5:48 9 14 mph 1021.1mb - -
5:42 10 14 mph 1021.1mb - -
5:36 11 15 mph 1021.1mb - -
5:30  -  mph 1021.1mb 61f -
5:24  -  mph 1021.1mb 61f -
5:18  -  mph - 61f 59f
5:12  -  mph - 61f 60f
5:06  -  mph - 62f 59f
5:00  -  mph - 61f 59f
4:54  -  mph - 62f 60f
4:48  -  mph 1021mb - -
4:42  -  mph 1021mb - -
4:36  -  mph 1021mb - -
4:30 18 22 mph - 63f -
4:24 16 20 mph - 63f -
4:18  -  mph - 63f 62f
4:12  -  mph - 63f 63f
4:06  -  mph - 64f 64f
4:00  -  mph - 64f 65f
3:54  -  mph - 64f 65f
3:48  -  mph - 64f 65f
3:42  -  mph - 63f 65f
3:36  -  mph - 64f 65f
3:30 14 15 mph - - -
3:24 13 15 mph - - -
3:18 13 14 mph 1020.8mb 64f 66f
3:12 10 15 mph 1020.8mb 65f 67f
3:06 11 14 mph 1020.8mb 64f 67f
3:00  -  mph - 64f -
2:54  -  mph - 64f -
2:48 11 15 mph - 64f 67f
2:42 11 14 mph - 64f 67f
2:36 11 14 mph - 65f 67f
2:30 10 13 mph 1021mb 64f 67f
2:24 11 14 mph 1021.1mb 65f 66f
2:18 10 14 mph 1021.1mb 65f 66f
2:12 9 13 mph 1021.1mb 65f 66f
2:06 10 14 mph 1021.2mb 65f 66f
2:00 9 14 mph 1021.3mb 65f 65f
1:54 10 13 mph 1021.3mb 65f 65f
1:48 11 15 mph 1021.4mb 65f 65f
1:42 9 11 mph 1021.5mb 65f 65f
1:36 8 10 mph 1021.6mb 65f 65f
1:30 9 15 mph 1021.5mb 65f 64f
1:24 13 15 mph 1021.6mb 65f 64f
1:18 13 15 mph 1021.7mb 65f 64f
1:12 13 16 mph 1021.7mb 65f 63f
1:06 14 16 mph 1021.7mb 65f 63f
1:00 10 16 mph 1021.8mb 65f 63f
12:54 14 17 mph 1021.8mb 65f 62f
12:48 11 14 mph 1021.8mb 65f 62f
12:42 11 15 mph 1021.9mb 65f 62f
12:36 13 14 mph 1021.9mb 64f 62f
12:30 11 13 mph 1021.9mb 64f 62f
12:24 10 15 mph 1021.9mb 65f 62f
12:18 11 14 mph 1022mb 64f -
12:12 10 13 mph 1022mb 64f 61f
12:06 8 11 mph 1022mb 64f 62f
12:00 10 13 mph 1022mb 64f 61f
11:54 9 13 mph 1022mb 64f 61f
11:48 7 10 mph 1022mb 64f 61f
11:42 6 9 mph 1022mb 64f 61f
11:36 6 7 mph 1022mb 64f 61f
11:30 5 6 mph 1021.9mb 63f 61f
11:24 2 5 mph 1021.9mb 63f 60f
11:18 2 5 mph 1021.9mb 63f 60f
11:12 3 6 mph 1022mb 63f 60f
11:06 5
mph
1021.9mb 63f 59f
11:00 5 6 mph 1021.9mb 63f 59f
10:54 6 7 mph 1022mb 63f 59f
10:48 6 7 mph 1022mb 63f 59f
10:42 3 5 mph 1022mb 63f 59f
10:36 2 3 mph 1022.1mb 63f 60f
10:30 1 2 mph 1022mb 63f 59f
10:24 1 2 mph 1021.9mb 63f 59f
10:18 2 5 mph 1021.9mb 62f 59f
10:12 2 3 mph 1021.9mb 62f 59f
10:06 2 5 mph 1021.9mb 62f 59f
10:00 2 5 mph 1021.9mb 62f 59f
9:54  -  2 mph 1021.9mb 62f 59f
9:48  -  2 mph 1022mb 62f 59f
9:42 1 3 mph 1021.9mb 62f 59f
9:36 2 5 mph 1021.9mb 62f 58f
9:30 3 6 mph 1021.9mb 62f 58f
9:24 2 6 mph 1022mb 62f 58f
9:18 3 5 mph 1021.9mb 62f 57f
9:12 3 5 mph 1021.9mb 62f 57f
9:06 3 7 mph 1021.9mb 61f 57f
9:00 6
mph
1021.9mb 60f 58f
8:54 2 6 mph 1021.8mb 60f 57f
8:48 5 7 mph 1021.7mb 60f 57f
8:42 3 6 mph 1021.7mb 61f 57f
8:36 5 6 mph 1021.6mb 61f 57f
8:30 1 2 mph 1021.6mb 61f 57f
8:24 1 2 mph 1021.5mb 61f 57f
8:18 2
mph
1021.5mb 60f 57f
8:12 2 5 mph 1021.4mb 60f 57f
8:06 3
mph
1021.5mb 59f 57f
8:00 3
mph
1021.5mb 58f 57f
7:54 1 3 mph 1021.5mb 58f 57f
7:48 2 5 mph 1021.4mb 57f 57f
7:42 5 7 mph 1021.3mb 57f 56f
7:36 6 8 mph 1021.3mb 57f 56f